createdAt,value
2022-08-09T00:00:11.194Z,20.6
2022-08-09T00:06:24.351Z,20.5
2022-08-09T00:10:25.943Z,20.4
2022-08-09T00:15:20.472Z,20.4
2022-08-09T00:20:24.689Z,20.3
2022-08-09T00:25:36.173Z,20.2
2022-08-09T00:30:41.713Z,20.2
2022-08-09T00:35:46.189Z,20.1
2022-08-09T00:40:59.223Z,20.1
2022-08-09T00:45:59.314Z,20.1
2022-08-09T00:51:12.096Z,20
2022-08-09T00:56:12.239Z,20
2022-08-09T01:01:11.303Z,20.1
2022-08-09T01:06:20.490Z,20
2022-08-09T01:11:17.430Z,19.8
2022-08-09T01:16:23.511Z,19.7
2022-08-09T01:21:52.389Z,19.6
2022-08-09T01:26:33.575Z,19.6
2022-08-09T01:32:35.987Z,19.8
2022-08-09T01:36:41.499Z,19.8
2022-08-09T01:42:12.162Z,19.6
2022-08-09T01:46:49.088Z,19.6
2022-08-09T01:51:56.026Z,19.8
2022-08-09T01:56:53.568Z,19.8
2022-08-09T02:02:02.807Z,20
2022-08-09T02:07:07.705Z,20.1
2022-08-09T02:12:23.066Z,20.1
2022-08-09T02:18:11.630Z,20
2022-08-09T02:22:39.843Z,19.7
2022-08-09T02:28:05.266Z,19.6
2022-08-09T02:32:31.987Z,19.5
2022-08-09T02:37:38.817Z,19.5
2022-08-09T02:42:37.987Z,19.4
2022-08-09T02:48:00.735Z,19.6
2022-08-09T02:52:45.731Z,19.5
2022-08-09T02:58:39.070Z,19.6
2022-08-09T03:03:02.966Z,19.8
2022-08-09T03:08:07.003Z,19.6
2022-08-09T03:13:16.831Z,19.7
2022-08-09T03:18:32.762Z,19.9
2022-08-09T03:23:27.055Z,19.9
2022-08-09T03:28:22.945Z,19.7
2022-08-09T03:33:56.514Z,20
2022-08-09T03:38:32.385Z,19.9
2022-08-09T03:43:37.665Z,19.8
2022-08-09T03:48:54.801Z,19.6
2022-08-09T03:53:50.397Z,19.4
2022-08-09T03:58:56.566Z,19.3
2022-08-09T04:04:14.610Z,19.5
2022-08-09T04:09:54.987Z,19.4
2022-08-09T04:15:11.276Z,19.5
2022-08-09T04:19:57.080Z,19.5
2022-08-09T04:24:28.999Z,19.4
2022-08-09T04:29:33.928Z,19.3
2022-08-09T04:34:33.845Z,19.5
2022-08-09T04:39:41.703Z,19.7
2022-08-09T04:44:32.232Z,19.6
2022-08-09T04:49:57.120Z,19.7
2022-08-09T04:54:39.768Z,20.1
2022-08-09T04:59:42.449Z,20.1
2022-08-09T05:04:57.598Z,20.7
2022-08-09T05:10:04.325Z,21.1
2022-08-09T05:15:43.257Z,21.3
2022-08-09T05:20:08.137Z,21.4
2022-08-09T05:25:10.973Z,21.4
2022-08-09T05:30:19.457Z,22.3
2022-08-09T05:35:24.299Z,22
2022-08-09T05:40:27.913Z,21.9
2022-08-09T05:45:59.023Z,22.3
2022-08-09T05:51:30.431Z,22.6
2022-08-09T05:55:39.256Z,22.9
2022-08-09T06:00:42.810Z,22.9
2022-08-09T06:06:06.773Z,22.8
2022-08-09T06:10:53.448Z,22.8
2022-08-09T06:15:57.490Z,22.9
2022-08-09T06:21:06.706Z,22.7
2022-08-09T06:26:12.048Z,22.7
2022-08-09T06:31:14.888Z,22.7
2022-08-09T06:36:20.101Z,23.2
2022-08-09T06:41:23.370Z,23.5
2022-08-09T06:46:43.045Z,23.8
2022-08-09T06:51:29.969Z,24.3
2022-08-09T06:56:33.894Z,24.3
2022-08-09T07:02:05.111Z,24.7
2022-08-09T07:06:38.160Z,25.1
2022-08-09T07:11:54.684Z,25.3
2022-08-09T07:16:58.659Z,25.5
2022-08-09T07:22:00.813Z,25.8
2022-08-09T07:26:54.438Z,25.8
2022-08-09T07:32:00.315Z,27.6
2022-08-09T07:37:04.899Z,28.3
2022-08-09T07:42:08.483Z,27.7
2022-08-09T07:47:16.730Z,27.5
2022-08-09T07:52:21.666Z,27
2022-08-09T07:57:37.075Z,27
2022-08-09T08:02:31.536Z,26.8
2022-08-09T08:09:18.280Z,26.7
2022-08-09T08:12:45.348Z,26.7
2022-08-09T08:17:59.741Z,26.8
2022-08-09T08:22:42.940Z,27
2022-08-09T08:27:51.926Z,27.4
2022-08-09T08:32:56.530Z,28
2022-08-09T08:38:12.978Z,28
2022-08-09T08:43:15.213Z,27.9
2022-08-09T08:48:11.249Z,27.8
2022-08-09T08:53:23.178Z,28
2022-08-09T08:58:18.991Z,28.1
2022-08-09T09:03:39.029Z,30.5
2022-08-09T09:08:43.298Z,30.4
2022-08-09T09:13:58.541Z,30.1
2022-08-09T09:18:52.007Z,30.1
2022-08-09T09:23:57.390Z,30.4
2022-08-09T09:29:19.979Z,30.7
2022-08-09T09:34:00.082Z,30.7
2022-08-09T09:38:53.415Z,30.7
2022-08-09T09:44:27.709Z,30.5
2022-08-09T09:49:03.646Z,30.2
2022-08-09T09:54:22.496Z,29.7
2022-08-09T09:59:20.100Z,29.9
2022-08-09T10:04:32.007Z,30.2
2022-08-09T10:09:28.158Z,30.7
2022-08-09T10:14:37.158Z,30.7
2022-08-09T10:19:41.666Z,30.9
2022-08-09T10:24:50.974Z,31.7
2022-08-09T10:34:54.538Z,33
2022-08-09T10:39:57.426Z,35.5
2022-08-09T10:45:10.554Z,37.2
2022-08-09T10:50:16.041Z,38.1
2022-08-09T10:55:15.044Z,37.7
2022-08-09T11:00:27.083Z,39.1
2022-08-09T11:05:33.426Z,39.6
2022-08-09T11:10:36.022Z,39.9
2022-08-09T11:16:05.057Z,37.5
2022-08-09T11:20:37.099Z,35.3
2022-08-09T11:25:51.050Z,34.6
2022-08-09T11:30:50.254Z,34.1
2022-08-09T11:35:56.688Z,34.6
2022-08-09T11:41:00.855Z,35.3
2022-08-09T11:46:04.235Z,34.6
2022-08-09T11:54:03.483Z,35.5
2022-08-09T11:56:21.319Z,35.6
2022-08-09T12:02:40.600Z,36.5
2022-08-09T12:06:35.988Z,36.5
2022-08-09T12:11:31.467Z,35.3
2022-08-09T12:16:41.206Z,34.9
2022-08-09T12:21:52.799Z,34.6
2022-08-09T12:29:59.878Z,35.3
2022-08-09T12:31:58.370Z,35.7
2022-08-09T12:37:29.189Z,35.8
2022-08-09T12:42:02.643Z,35.5
2022-08-09T12:47:09.864Z,36
2022-08-09T12:52:15.085Z,35.7
2022-08-09T12:57:24.256Z,34.9
2022-08-09T13:02:28.418Z,35.1
2022-08-09T13:07:54.540Z,33.7
2022-08-09T13:13:12.177Z,32.8
2022-08-09T13:18:18.454Z,32.6
2022-08-09T13:24:54.757Z,33.9
2022-08-09T13:28:02.310Z,34.1
2022-08-09T13:33:05.979Z,34.5
2022-08-09T13:39:01.176Z,33.8
2022-08-09T13:43:10.170Z,33.1
2022-08-09T13:48:15.762Z,32.5
2022-08-09T13:53:18.634Z,32.2
2022-08-09T13:58:25.852Z,31.8
2022-08-09T14:04:12.969Z,32.5
2022-08-09T14:08:35.115Z,32.5
2022-08-09T14:14:34.533Z,32.7
2022-08-09T14:18:38.696Z,32.8
2022-08-09T14:24:01.088Z,32.6
2022-08-09T14:28:50.165Z,32.6
2022-08-09T14:33:56.867Z,32
2022-08-09T14:39:03.353Z,32.1
2022-08-09T14:44:15.376Z,31.2
2022-08-09T14:49:17.404Z,31.1
2022-08-09T14:54:27.961Z,31.5
2022-08-09T14:59:25.153Z,31.7
2022-08-09T15:04:31.083Z,31.4
2022-08-09T15:10:16.141Z,31.2
2022-08-09T15:14:40.999Z,30.9
2022-08-09T15:20:03.881Z,30.8
2022-08-09T15:24:49.742Z,30.5
2022-08-09T15:31:14.693Z,30.2
2022-08-09T15:35:01.847Z,29.9
2022-08-09T15:40:15.145Z,29.6
2022-08-09T15:45:07.131Z,29.4
2022-08-09T15:50:16.015Z,29.2
2022-08-09T15:55:22.013Z,29
2022-08-09T16:00:33.521Z,28.9
2022-08-09T16:06:04.413Z,28.8
2022-08-09T16:10:58.086Z,28.8
2022-08-09T16:16:19.747Z,28.8
2022-08-09T16:20:50.016Z,28.7
2022-08-09T16:26:02.731Z,28.5
2022-08-09T16:31:01.236Z,28.3
2022-08-09T16:36:09.198Z,28.2
2022-08-09T16:41:09.083Z,28.1
2022-08-09T16:46:07.444Z,27.9
2022-08-09T16:51:16.161Z,27.8
2022-08-09T16:56:26.247Z,27.6
2022-08-09T17:01:26.979Z,27.4
2022-08-09T17:09:01.273Z,27.1
2022-08-09T17:11:43.617Z,26.8
2022-08-09T17:16:29.610Z,26.8
2022-08-09T17:21:40.591Z,26.6
2022-08-09T17:26:54.953Z,26.6
2022-08-09T17:32:00.822Z,26.4
2022-08-09T17:37:04.662Z,26.4
2022-08-09T17:42:48.178Z,26.3
2022-08-09T17:47:12.791Z,26.3
2022-08-09T17:52:35.170Z,26.3
2022-08-09T17:58:10.545Z,26.3
2022-08-09T18:02:36.058Z,26.3
2022-08-09T18:07:36.440Z,26.3
2022-08-09T18:14:10.802Z,26.2
2022-08-09T18:18:09.146Z,26.1
2022-08-09T18:22:56.604Z,26
2022-08-09T18:30:36.898Z,25.9
2022-08-09T18:33:24.316Z,25.7
2022-08-09T18:38:15.942Z,25.4
2022-08-09T18:43:18.580Z,25.3
2022-08-09T18:48:34.159Z,25.3
2022-08-09T18:54:08.470Z,25.2
2022-08-09T18:58:36.281Z,25.2
2022-08-09T19:04:09.161Z,25.1
2022-08-09T19:08:31.574Z,25.1
2022-08-09T19:13:52.991Z,25
2022-08-09T19:18:45.856Z,24.9
2022-08-09T19:25:27.133Z,24.9
2022-08-09T19:28:51.829Z,24.7
2022-08-09T19:33:54.531Z,24.7
2022-08-09T19:38:58.002Z,24.7
2022-08-09T19:44:04.635Z,24.4
2022-08-09T19:50:54.214Z,23.9
2022-08-09T19:54:14.742Z,23.6
2022-08-09T20:00:08.982Z,23.3
2022-08-09T20:04:53.113Z,23.1
2022-08-09T20:09:47.641Z,23.2
2022-08-09T20:14:32.563Z,23.2
2022-08-09T20:19:56.005Z,23.3
2022-08-09T20:29:43.871Z,23.2
2022-08-09T20:34:52.548Z,23.2
2022-08-09T20:40:28.907Z,23.1
2022-08-09T20:46:45.147Z,23.1
2022-08-09T20:50:09.640Z,23.1
2022-08-09T20:55:14.964Z,22.9
2022-08-09T21:00:33.357Z,22.8
2022-08-09T21:10:36.645Z,22.5
2022-08-09T21:15:56.999Z,22.4
2022-08-09T21:20:44.266Z,22.4
2022-08-09T21:26:01.487Z,22.3
2022-08-09T21:30:56.652Z,22.2
2022-08-09T21:36:03.215Z,22.3
2022-08-09T21:41:02.024Z,22.3
2022-08-09T21:46:14.797Z,22.2
2022-08-09T21:51:44.471Z,22.2
2022-08-09T21:56:55.986Z,22.3
2022-08-09T22:02:03.824Z,22.2
2022-08-09T22:06:37.248Z,22.2
2022-08-09T22:12:32.356Z,22.1
2022-08-09T22:16:45.450Z,22.1
2022-08-09T22:21:53.178Z,22
2022-08-09T22:26:58.858Z,21.9
2022-08-09T22:32:01.369Z,21.8
2022-08-09T22:37:04.112Z,21.7
2022-08-09T22:42:06.208Z,21.5
2022-08-09T22:48:37.379Z,21.4
2022-08-09T22:52:12.034Z,21.3
2022-08-09T22:57:35.828Z,21.1
2022-08-09T23:02:30.984Z,21.1
2022-08-09T23:08:31.766Z,21
2022-08-09T23:12:35.807Z,20.8
2022-08-09T23:17:38.436Z,20.8
2022-08-09T23:22:41.004Z,20.7
2022-08-09T23:28:17.391Z,20.6
2022-08-09T23:32:49.664Z,20.6
2022-08-09T23:37:52.098Z,20.6
2022-08-09T23:42:54.635Z,20.6
2022-08-09T23:47:57.386Z,20.5
2022-08-09T23:52:59.892Z,20.3
2022-08-09T23:58:29.839Z,20.2
